createdAt,value
2018-09-15T00:02:29.420Z,10.57
2018-09-15T00:04:58.801Z,10.00
2018-09-15T00:07:28.201Z,10.27
2018-09-15T00:09:57.880Z,10.83
2018-09-15T00:12:27.212Z,10.07
2018-09-15T00:14:56.390Z,15.83
2018-09-15T00:17:25.783Z,11.77
2018-09-15T00:19:55.183Z,9.97
2018-09-15T00:22:24.120Z,12.43
2018-09-15T00:24:53.428Z,11.83
2018-09-15T00:27:22.826Z,13.10
2018-09-15T00:29:51.900Z,13.87
2018-09-15T00:32:20.915Z,10.33
2018-09-15T00:34:50.435Z,16.57
2018-09-15T00:37:19.516Z,11.10
2018-09-15T00:39:48.953Z,12.70
2018-09-15T00:42:18.116Z,15.40
2018-09-15T00:44:47.235Z,12.90
2018-09-15T00:47:16.677Z,13.80
2018-09-15T00:49:46.133Z,12.43
2018-09-15T00:52:15.107Z,13.87
2018-09-15T00:54:44.516Z,14.03
2018-09-15T00:57:13.724Z,14.40
2018-09-15T00:59:43.169Z,15.70
2018-09-15T01:02:12.380Z,16.13
2018-09-15T01:04:41.683Z,18.37
2018-09-15T01:07:17.201Z,17.00
2018-09-15T01:09:46.419Z,13.33
2018-09-15T01:12:15.735Z,13.93
2018-09-15T01:14:45.208Z,12.17
2018-09-15T01:17:14.374Z,14.53
2018-09-15T01:19:43.705Z,13.40
2018-09-15T01:22:12.705Z,13.73
2018-09-15T01:24:42.453Z,14.07
2018-09-15T01:27:11.501Z,16.20
2018-09-15T01:29:41.133Z,17.10
2018-09-15T01:32:10.395Z,15.80
2018-09-15T01:34:39.462Z,15.30
2018-09-15T01:37:08.846Z,16.63
2018-09-15T01:39:38.059Z,11.73
2018-09-15T01:42:08.916Z,14.53
2018-09-15T01:44:38.154Z,19.27
2018-09-15T01:47:07.244Z,14.70
2018-09-15T01:49:36.422Z,18.27
2018-09-15T01:52:05.829Z,13.53
2018-09-15T01:54:35.344Z,15.80
2018-09-15T01:57:04.457Z,18.03
2018-09-15T01:59:33.583Z,16.67
2018-09-15T02:02:02.775Z,17.97
2018-09-15T02:04:31.815Z,17.70
2018-09-15T02:07:01.070Z,19.90
2018-09-15T02:09:30.142Z,16.07
2018-09-15T02:12:02.244Z,17.50
2018-09-15T02:14:31.302Z,17.53
2018-09-15T02:17:00.239Z,18.43
2018-09-15T02:19:29.347Z,17.53
2018-09-15T02:21:58.705Z,19.43
2018-09-15T02:24:27.963Z,19.40
2018-09-15T02:26:57.145Z,17.77
2018-09-15T02:29:26.852Z,20.00
2018-09-15T02:31:56.162Z,16.97
2018-09-15T02:34:25.170Z,14.93
2018-09-15T02:36:55.115Z,15.73
2018-09-15T02:39:24.291Z,16.60
2018-09-15T02:41:53.495Z,16.47
2018-09-15T02:44:22.706Z,15.77
2018-09-15T02:46:52.054Z,12.70
2018-09-15T02:49:21.434Z,16.90
2018-09-15T02:51:50.809Z,16.30
2018-09-15T02:54:19.863Z,15.87
2018-09-15T02:56:48.914Z,16.27
2018-09-15T02:59:18.085Z,13.90
2018-09-15T03:01:47.309Z,16.30
2018-09-15T03:04:16.485Z,14.77
2018-09-15T03:06:45.669Z,13.23
2018-09-15T03:09:14.762Z,15.10
2018-09-15T03:11:44.298Z,12.23
2018-09-15T03:14:13.899Z,16.43
2018-09-15T03:16:43.098Z,13.37
2018-09-15T03:19:12.208Z,11.83
2018-09-15T03:21:41.908Z,12.27
2018-09-15T03:24:11.132Z,12.83
2018-09-15T03:26:40.307Z,12.67
2018-09-15T03:29:09.291Z,12.53
2018-09-15T03:31:38.525Z,13.80
2018-09-15T03:34:07.884Z,12.87
2018-09-15T03:36:37.134Z,12.90
2018-09-15T03:39:08.626Z,14.93
2018-09-15T03:41:37.709Z,14.73
2018-09-15T03:44:07.128Z,15.57
2018-09-15T03:46:36.166Z,14.50
2018-09-15T03:49:05.362Z,13.37
2018-09-15T03:51:34.461Z,13.07
2018-09-15T03:54:03.603Z,13.50
2018-09-15T03:56:33.089Z,16.70
2018-09-15T03:59:02.215Z,12.20
2018-09-15T04:01:31.346Z,13.97
2018-09-15T04:04:00.453Z,14.23
2018-09-15T04:06:29.744Z,14.70
2018-09-15T04:08:58.755Z,12.63
2018-09-15T04:11:28.310Z,13.77
2018-09-15T04:13:57.973Z,14.23
2018-09-15T04:16:27.369Z,12.57
2018-09-15T04:18:56.404Z,12.87
2018-09-15T04:21:25.453Z,12.03
2018-09-15T04:23:54.502Z,11.93
2018-09-15T04:26:23.702Z,13.40
2018-09-15T04:28:52.644Z,13.03
2018-09-15T04:31:21.894Z,10.80
2018-09-15T04:33:51.709Z,12.40
2018-09-15T04:36:21.264Z,10.80
2018-09-15T04:38:50.338Z,14.13
2018-09-15T04:41:19.461Z,14.20
2018-09-15T04:43:49.062Z,11.60
2018-09-15T04:46:18.262Z,12.13
2018-09-15T04:48:47.167Z,10.27
2018-09-15T04:51:16.711Z,10.07
2018-09-15T04:53:45.782Z,8.60
2018-09-15T04:56:16.052Z,11.60
2018-09-15T04:58:45.104Z,12.97
2018-09-15T05:01:14.468Z,11.50
2018-09-15T05:03:43.939Z,10.30
2018-09-15T05:06:13.104Z,10.80
2018-09-15T05:08:42.234Z,10.80
2018-09-15T05:11:11.520Z,10.40
2018-09-15T05:13:40.881Z,10.43
2018-09-15T05:16:10.297Z,11.03
2018-09-15T05:18:39.890Z,12.43
2018-09-15T05:21:09.903Z,10.73
2018-09-15T05:23:40.121Z,11.63
2018-09-15T05:26:09.207Z,11.27
2018-09-15T05:28:38.419Z,12.07
2018-09-15T05:31:07.512Z,13.83
2018-09-15T05:33:36.581Z,12.10
2018-09-15T05:36:05.711Z,10.40
2018-09-15T05:38:34.685Z,12.67
2018-09-15T05:41:03.790Z,11.37
2018-09-15T05:43:32.756Z,15.63
2018-09-15T05:46:01.725Z,13.13
2018-09-15T05:48:30.917Z,12.63
2018-09-15T05:51:00.463Z,13.30
2018-09-15T05:53:29.599Z,14.10
2018-09-15T05:55:58.633Z,20.40
2018-09-15T05:58:27.898Z,15.73
2018-09-15T06:00:57.533Z,17.53
2018-09-15T06:03:27.400Z,17.13
2018-09-15T06:05:56.553Z,19.30
2018-09-15T06:08:25.797Z,15.87
2018-09-15T06:10:54.871Z,20.23
2018-09-15T06:13:24.198Z,17.33
2018-09-15T06:15:53.258Z,19.97
2018-09-15T06:18:22.496Z,22.27
2018-09-15T06:20:51.628Z,18.90
2018-09-15T06:23:20.883Z,21.03
2018-09-15T06:25:50.401Z,25.47
2018-09-15T06:28:19.479Z,21.73
2018-09-15T06:30:48.667Z,21.13
2018-09-15T06:33:18.013Z,21.30
2018-09-15T06:35:47.003Z,20.10
2018-09-15T06:38:16.056Z,17.47
2018-09-15T06:40:45.067Z,19.20
2018-09-15T06:43:14.195Z,21.87
2018-09-15T06:45:44.207Z,15.70
2018-09-15T06:48:14.306Z,20.90
2018-09-15T06:50:43.989Z,17.10
2018-09-15T06:53:13.550Z,17.27
2018-09-15T06:55:43.818Z,17.67
2018-09-15T06:58:13.306Z,16.73
2018-09-15T07:00:43.378Z,16.27
2018-09-15T07:03:13.083Z,16.20
2018-09-15T07:05:42.303Z,13.33
2018-09-15T07:08:11.374Z,15.00
2018-09-15T07:10:40.653Z,12.60
2018-09-15T07:13:09.925Z,20.23
2018-09-15T07:15:38.963Z,13.03
2018-09-15T07:18:08.514Z,15.10
2018-09-15T07:20:37.519Z,14.37
2018-09-15T07:23:06.847Z,11.27
2018-09-15T07:25:35.960Z,12.80
2018-09-15T07:28:05.266Z,12.80
2018-09-15T07:30:34.233Z,11.67
2018-09-15T07:33:03.411Z,11.53
2018-09-15T07:35:32.554Z,13.77
2018-09-15T07:38:01.728Z,9.90
2018-09-15T07:40:31.188Z,10.97
2018-09-15T07:43:00.908Z,13.20
2018-09-15T07:45:30.163Z,30.50
2018-09-15T07:47:59.165Z,8.20
2018-09-15T07:50:28.283Z,16.17
2018-09-15T07:52:57.488Z,10.00
2018-09-15T07:55:26.540Z,10.23
2018-09-15T07:57:55.817Z,11.33
2018-09-15T08:00:25.770Z,8.60
2018-09-15T08:02:55.741Z,8.00
2018-09-15T08:05:24.870Z,8.50
2018-09-15T08:07:54.032Z,10.20
2018-09-15T08:10:23.184Z,9.40
2018-09-15T08:12:52.343Z,8.17
2018-09-15T08:15:21.507Z,8.30
2018-09-15T08:17:50.542Z,6.20
2018-09-15T08:20:19.563Z,8.23
2018-09-15T08:22:48.823Z,8.50
2018-09-15T08:25:17.908Z,5.90
2018-09-15T08:27:46.843Z,7.17
2018-09-15T08:30:16.194Z,5.10
2018-09-15T08:32:45.709Z,6.73
2018-09-15T08:35:15.518Z,5.50
2018-09-15T08:37:44.618Z,7.80
2018-09-15T08:40:13.992Z,5.93
2018-09-15T08:42:49.360Z,8.17
2018-09-15T08:45:19.644Z,5.97
2018-09-15T08:47:50.098Z,7.70
2018-09-15T08:50:19.885Z,6.73
2018-09-15T08:52:48.981Z,4.97
2018-09-15T08:55:17.984Z,5.87
2018-09-15T08:57:46.966Z,4.87
2018-09-15T09:00:16.118Z,4.17
2018-09-15T09:02:45.965Z,4.93
2018-09-15T09:05:15.139Z,4.30
2018-09-15T09:07:44.116Z,5.03
2018-09-15T09:10:13.105Z,5.00
2018-09-15T09:12:42.483Z,6.83
2018-09-15T09:15:11.608Z,5.30
2018-09-15T09:17:40.857Z,4.73
2018-09-15T09:20:10.161Z,4.93
2018-09-15T09:22:39.506Z,5.03
2018-09-15T09:25:08.894Z,5.97
2018-09-15T09:27:37.962Z,5.73
2018-09-15T09:30:07.238Z,4.67
2018-09-15T09:32:36.407Z,4.97
2018-09-15T09:35:05.540Z,4.37
2018-09-15T09:37:34.738Z,4.47
2018-09-15T09:40:04.130Z,6.10
2018-09-15T09:42:33.381Z,4.47
2018-09-15T09:45:02.611Z,4.67
2018-09-15T09:47:31.788Z,5.30
2018-09-15T09:50:00.971Z,4.37
2018-09-15T09:52:30.895Z,4.60
2018-09-15T09:54:59.928Z,4.50
2018-09-15T09:57:29.229Z,3.97
2018-09-15T09:59:58.251Z,5.03
2018-09-15T10:02:27.387Z,4.67
2018-09-15T10:04:56.529Z,5.60
2018-09-15T10:07:25.791Z,5.43
2018-09-15T10:09:54.979Z,5.17
2018-09-15T10:12:24.035Z,5.03
2018-09-15T10:14:53.336Z,5.10
2018-09-15T10:17:22.535Z,4.70
2018-09-15T10:19:51.708Z,6.67
2018-09-15T10:22:20.933Z,5.30
2018-09-15T10:24:50.324Z,5.40
2018-09-15T10:27:19.819Z,4.90
2018-09-15T10:29:48.981Z,5.03
2018-09-15T10:32:18.210Z,5.13
2018-09-15T10:34:47.920Z,5.60
2018-09-15T10:37:17.157Z,5.00
2018-09-15T10:39:46.574Z,5.93
2018-09-15T10:42:15.650Z,5.90
2018-09-15T10:44:45.179Z,5.33
2018-09-15T10:47:14.717Z,4.80
2018-09-15T10:49:44.644Z,4.47
2018-09-15T10:52:13.569Z,4.57
2018-09-15T10:54:42.788Z,5.13
2018-09-15T10:57:11.959Z,6.00
2018-09-15T10:59:41.153Z,5.30
2018-09-15T11:02:14.910Z,5.80
2018-09-15T11:04:45.760Z,5.37
2018-09-15T11:07:15.616Z,4.63
2018-09-15T11:09:45.193Z,6.13
2018-09-15T11:12:14.333Z,4.90
2018-09-15T11:14:43.621Z,4.43
2018-09-15T11:17:12.615Z,6.50
2018-09-15T11:19:41.908Z,5.93
2018-09-15T11:22:10.803Z,5.70
2018-09-15T11:24:39.932Z,9.77
2018-09-15T11:27:09.048Z,5.13
2018-09-15T11:29:38.431Z,5.40
2018-09-15T11:32:07.945Z,5.40
2018-09-15T11:34:37.506Z,6.73
2018-09-15T11:37:06.812Z,5.00
2018-09-15T11:39:36.324Z,8.37
2018-09-15T11:42:05.422Z,5.10
2018-09-15T11:44:34.589Z,5.37
2018-09-15T11:47:04.005Z,5.00
2018-09-15T11:49:32.998Z,6.83
2018-09-15T11:52:02.145Z,5.07
2018-09-15T11:54:31.239Z,5.47
2018-09-15T11:57:00.209Z,4.33
2018-09-15T11:59:29.296Z,4.73
2018-09-15T12:01:58.568Z,5.10
2018-09-15T12:04:28.278Z,5.37
2018-09-15T12:06:57.454Z,4.03
2018-09-15T12:09:26.597Z,4.63
2018-09-15T12:11:55.577Z,5.03
2018-09-15T12:14:24.688Z,5.27
2018-09-15T12:16:53.907Z,4.67
2018-09-15T12:19:23.242Z,4.40
2018-09-15T12:21:52.621Z,5.17
2018-09-15T12:24:22.632Z,6.27
2018-09-15T12:26:51.700Z,4.60
2018-09-15T12:29:20.766Z,6.07
2018-09-15T12:31:49.899Z,5.87
2018-09-15T12:34:19.096Z,4.60
2018-09-15T12:36:48.082Z,5.10
2018-09-15T12:39:18.021Z,5.40
2018-09-15T12:41:47.240Z,5.00
2018-09-15T12:44:16.340Z,4.73
2018-09-15T12:46:45.633Z,8.00
2018-09-15T12:49:14.696Z,4.40
2018-09-15T12:51:44.269Z,4.60
2018-09-15T12:54:13.280Z,4.30
2018-09-15T12:56:42.520Z,4.60
2018-09-15T12:59:12.060Z,4.40
2018-09-15T13:01:41.283Z,3.93
2018-09-15T13:04:10.762Z,4.37
2018-09-15T13:06:39.875Z,4.00
2018-09-15T13:09:11.714Z,4.47
2018-09-15T13:11:41.536Z,4.67
2018-09-15T13:14:10.669Z,3.87
2018-09-15T13:16:39.589Z,4.63
2018-09-15T13:19:08.609Z,4.50
2018-09-15T13:21:37.670Z,6.53
2018-09-15T13:24:06.885Z,4.00
2018-09-15T13:26:36.048Z,4.87
2018-09-15T13:29:05.134Z,5.00
2018-09-15T13:31:35.023Z,5.17
2018-09-15T13:34:04.193Z,4.53
2018-09-15T13:36:33.567Z,4.97
2018-09-15T13:39:02.847Z,4.60
2018-09-15T13:41:32.533Z,5.23
2018-09-15T13:44:01.588Z,4.90
2018-09-15T13:46:30.654Z,5.53
2018-09-15T13:48:59.796Z,5.33
2018-09-15T13:51:28.868Z,12.03
2018-09-15T13:53:58.628Z,6.23
2018-09-15T13:56:27.822Z,5.20
2018-09-15T13:58:57.086Z,5.20
2018-09-15T14:01:26.268Z,7.50
2018-09-15T14:03:55.550Z,17.13
2018-09-15T14:06:24.624Z,6.40
2018-09-15T14:08:53.774Z,5.83
2018-09-15T14:11:23.000Z,5.93
2018-09-15T14:13:52.074Z,6.20
2018-09-15T14:16:21.544Z,6.70
2018-09-15T14:18:50.992Z,8.50
2018-09-15T14:21:20.232Z,7.83
2018-09-15T14:23:49.175Z,9.17
2018-09-15T14:26:18.577Z,6.33
2018-09-15T14:28:47.623Z,7.10
2018-09-15T14:31:16.877Z,7.07
2018-09-15T14:33:46.354Z,6.33
2018-09-15T14:36:16.025Z,8.17
2018-09-15T14:38:45.380Z,7.27
2018-09-15T14:41:14.489Z,6.60
2018-09-15T14:43:43.820Z,7.83
2018-09-15T14:46:12.709Z,6.07
2018-09-15T14:48:41.947Z,6.47
2018-09-15T14:51:11.151Z,6.67
2018-09-15T14:53:40.736Z,6.90
2018-09-15T14:56:11.001Z,9.60
2018-09-15T14:58:40.372Z,7.07
2018-09-15T15:01:10.267Z,7.80
2018-09-15T15:03:40.015Z,6.70
2018-09-15T15:06:09.291Z,10.47
2018-09-15T15:08:38.768Z,7.53
2018-09-15T15:11:08.486Z,6.50
2018-09-15T15:13:37.654Z,7.20
2018-09-15T15:16:07.094Z,12.53
2018-09-15T15:18:36.251Z,8.00
2018-09-15T15:21:05.551Z,8.83
2018-09-15T15:23:35.331Z,7.13
2018-09-15T15:26:04.578Z,8.50
2018-09-15T15:28:33.704Z,15.13
2018-09-15T15:31:03.052Z,6.30
2018-09-15T15:33:32.319Z,8.80
2018-09-15T15:36:01.553Z,6.73
2018-09-15T15:38:30.858Z,6.90
2018-09-15T15:41:00.380Z,6.50
2018-09-15T15:43:29.765Z,5.60
2018-09-15T15:45:59.480Z,6.27
2018-09-15T15:48:29.404Z,5.23
2018-09-15T15:50:58.808Z,6.10
2018-09-15T15:53:28.230Z,5.20
2018-09-15T15:55:57.771Z,5.80
2018-09-15T15:58:26.783Z,6.23
2018-09-15T16:00:55.939Z,5.90
2018-09-15T16:03:24.846Z,7.10
2018-09-15T16:05:54.526Z,5.50
2018-09-15T16:08:23.628Z,6.03
2018-09-15T16:10:53.545Z,5.73
2018-09-15T16:13:22.619Z,4.83
2018-09-15T16:15:52.386Z,4.70
2018-09-15T16:18:22.211Z,4.57
2018-09-15T16:20:51.327Z,4.60
2018-09-15T16:23:20.652Z,5.30
2018-09-15T16:25:49.804Z,5.53
2018-09-15T16:28:19.511Z,4.77
2018-09-15T16:30:49.425Z,5.07
2018-09-15T16:33:18.541Z,5.40
2018-09-15T16:35:47.984Z,11.90
2018-09-15T16:38:17.155Z,5.40
2018-09-15T16:40:46.392Z,5.57
2018-09-15T16:43:15.753Z,8.03
2018-09-15T16:45:44.836Z,4.53
2018-09-15T16:48:13.763Z,5.17
2018-09-15T16:50:42.857Z,5.63
2018-09-15T16:53:11.964Z,5.63
2018-09-15T16:55:41.908Z,8.87
2018-09-15T16:58:11.903Z,5.67
2018-09-15T17:00:41.160Z,6.00
2018-09-15T17:03:10.381Z,6.07
2018-09-15T17:05:39.442Z,7.57
2018-09-15T17:08:08.722Z,6.50
2018-09-15T17:10:37.849Z,6.47
2018-09-15T17:13:06.942Z,10.17
2018-09-15T17:15:36.287Z,7.47
2018-09-15T17:18:05.256Z,5.33
2018-09-15T17:20:34.318Z,6.00
2018-09-15T17:23:03.529Z,7.60
2018-09-15T17:25:39.316Z,7.43
2018-09-15T17:28:08.532Z,6.77
2018-09-15T17:30:37.503Z,9.87
2018-09-15T17:33:07.065Z,8.17
2018-09-15T17:35:36.118Z,12.27
2018-09-15T17:38:05.290Z,8.43
2018-09-15T17:40:35.189Z,8.73
2018-09-15T17:43:05.176Z,7.57
2018-09-15T17:45:34.734Z,7.87
2018-09-15T17:48:05.206Z,7.40
2018-09-15T17:50:34.835Z,9.40
2018-09-15T17:53:04.199Z,8.70
2018-09-15T17:55:33.661Z,8.37
2018-09-15T17:58:02.712Z,8.30
2018-09-15T18:00:32.013Z,9.80
2018-09-15T18:03:01.214Z,10.87
2018-09-15T18:05:30.583Z,10.30
2018-09-15T18:07:59.591Z,9.60
2018-09-15T18:10:28.620Z,10.43
2018-09-15T18:12:57.776Z,9.73
2018-09-15T18:15:27.708Z,12.70
2018-09-15T18:17:56.671Z,9.57
2018-09-15T18:20:26.161Z,8.10
2018-09-15T18:22:55.199Z,11.57
2018-09-15T18:25:24.199Z,8.30
2018-09-15T18:27:53.770Z,8.70
2018-09-15T18:30:22.923Z,8.70
2018-09-15T18:32:51.872Z,8.73
2018-09-15T18:35:21.172Z,8.07
2018-09-15T18:37:50.440Z,8.67
2018-09-15T18:40:19.622Z,9.00
2018-09-15T18:42:48.745Z,7.70
2018-09-15T18:45:17.960Z,8.33
2018-09-15T18:47:47.849Z,8.27
2018-09-15T18:50:16.970Z,9.60
2018-09-15T18:52:46.122Z,7.90
2018-09-15T18:55:15.458Z,9.77
2018-09-15T18:57:45.113Z,7.97
2018-09-15T19:00:14.301Z,9.73
2018-09-15T19:02:43.548Z,8.37
2018-09-15T19:05:12.687Z,8.57
2018-09-15T19:07:41.895Z,10.50
2018-09-15T19:10:11.310Z,8.03
2018-09-15T19:12:40.580Z,12.33
2018-09-15T19:15:16.078Z,9.20
2018-09-15T19:17:45.667Z,13.00
2018-09-15T19:20:15.127Z,9.47
2018-09-15T19:22:44.955Z,13.00
2018-09-15T19:25:14.037Z,8.30
2018-09-15T19:27:43.146Z,7.57
2018-09-15T19:30:12.319Z,11.17
2018-09-15T19:32:41.322Z,10.17
2018-09-15T19:35:12.049Z,8.13
2018-09-15T19:37:41.353Z,8.47
2018-09-15T19:40:10.383Z,9.87
2018-09-15T19:42:40.174Z,9.23
2018-09-15T19:45:09.277Z,11.20
2018-09-15T19:47:38.263Z,10.70
2018-09-15T19:50:07.367Z,8.73
2018-09-15T19:52:36.714Z,10.40
2018-09-15T19:55:06.162Z,9.60
2018-09-15T19:57:42.090Z,8.73
2018-09-15T20:00:11.118Z,12.83
2018-09-15T20:02:40.221Z,10.50
2018-09-15T20:05:09.432Z,8.83
2018-09-15T20:07:39.162Z,10.00
2018-09-15T20:10:08.121Z,8.53
2018-09-15T20:12:37.199Z,8.80
2018-09-15T20:15:06.648Z,12.93
2018-09-15T20:17:34.787Z,9.03
2018-09-15T20:20:02.361Z,12.17
2018-09-15T20:22:31.581Z,9.00
2018-09-15T20:25:00.546Z,9.80
2018-09-15T20:27:29.721Z,8.33
2018-09-15T20:29:58.836Z,8.27
2018-09-15T20:32:27.961Z,9.33
2018-09-15T20:34:57.373Z,8.33
2018-09-15T20:37:26.768Z,8.57
2018-09-15T20:39:55.827Z,10.60
2018-09-15T20:42:24.965Z,9.80
2018-09-15T20:44:54.102Z,8.87
2018-09-15T20:47:23.162Z,9.50
2018-09-15T20:49:52.997Z,8.57
2018-09-15T20:52:23.014Z,8.77
2018-09-15T20:54:52.437Z,8.63
2018-09-15T20:57:21.454Z,8.97
2018-09-15T20:59:50.675Z,11.60
2018-09-15T21:02:19.720Z,9.67
2018-09-15T21:04:49.005Z,8.97
2018-09-15T21:07:18.169Z,10.37
2018-09-15T21:09:47.331Z,8.20
2018-09-15T21:12:16.577Z,8.50
2018-09-15T21:14:46.006Z,9.20
2018-09-15T21:17:15.048Z,7.80
2018-09-15T21:19:44.148Z,8.90
2018-09-15T21:22:13.235Z,14.20
2018-09-15T21:24:42.263Z,9.57
2018-09-15T21:27:11.883Z,9.27
2018-09-15T21:29:40.722Z,9.53
2018-09-15T21:32:09.721Z,8.63
2018-09-15T21:34:38.997Z,7.00
2018-09-15T21:37:07.915Z,9.80
2018-09-15T21:39:37.652Z,8.73
2018-09-15T21:42:06.752Z,8.90
2018-09-15T21:44:35.891Z,8.63
2018-09-15T21:47:05.741Z,8.00
2018-09-15T21:49:35.210Z,13.93
2018-09-15T21:52:04.242Z,8.80
2018-09-15T21:54:33.257Z,8.60
2018-09-15T21:57:02.767Z,7.70
2018-09-15T21:59:31.840Z,7.43
2018-09-15T22:02:01.384Z,8.60
2018-09-15T22:04:31.002Z,9.60
2018-09-15T22:07:00.196Z,8.40
2018-09-15T22:09:29.377Z,8.23
2018-09-15T22:11:59.465Z,8.53
2018-09-15T22:14:28.400Z,7.50
2018-09-15T22:16:57.765Z,11.73
2018-09-15T22:19:26.838Z,9.70
2018-09-15T22:21:56.658Z,8.63
2018-09-15T22:24:25.798Z,9.20
2018-09-15T22:26:54.834Z,8.77
2018-09-15T22:29:23.953Z,8.00
2018-09-15T22:31:54.976Z,7.37
2018-09-15T22:34:24.288Z,8.10
2018-09-15T22:36:53.499Z,7.20
2018-09-15T22:39:22.714Z,7.60
2018-09-15T22:41:51.809Z,9.20
2018-09-15T22:44:20.901Z,7.80
2018-09-15T22:46:50.380Z,8.87
2018-09-15T22:49:19.412Z,7.50
2018-09-15T22:51:48.591Z,7.30
2018-09-15T22:54:24.357Z,9.00
2018-09-15T22:56:53.772Z,7.83
2018-09-15T22:59:23.167Z,7.20
2018-09-15T23:01:52.300Z,7.60
2018-09-15T23:04:21.395Z,9.20
2018-09-15T23:06:50.877Z,9.17
2018-09-15T23:09:20.074Z,7.37
2018-09-15T23:11:49.275Z,8.83
2018-09-15T23:14:18.376Z,8.73
2018-09-15T23:16:47.641Z,7.90
2018-09-15T23:19:16.891Z,7.90
2018-09-15T23:21:46.296Z,8.00
2018-09-15T23:24:15.478Z,8.73
2018-09-15T23:26:44.581Z,8.83
2018-09-15T23:29:13.956Z,7.97
2018-09-15T23:31:42.929Z,8.80
2018-09-15T23:34:12.091Z,7.70
2018-09-15T23:36:41.319Z,8.07
2018-09-15T23:39:10.409Z,8.53
2018-09-15T23:41:39.689Z,9.57
2018-09-15T23:44:09.251Z,7.83
2018-09-15T23:46:39.030Z,7.97
2018-09-15T23:49:08.183Z,8.23
2018-09-15T23:51:37.586Z,9.03
2018-09-15T23:54:06.747Z,9.03
2018-09-15T23:56:36.107Z,8.37
2018-09-15T23:59:05.888Z,9.43
